createdAt,value
2022-09-07T00:01:56.228Z,95274.13
2022-09-07T00:04:22.997Z,95278.19
2022-09-07T00:06:49.728Z,95279.63
2022-09-07T00:09:18.104Z,95268.78
2022-09-07T00:11:45.133Z,95266.50
2022-09-07T00:14:11.839Z,95254.75
2022-09-07T00:16:38.590Z,95244.56
2022-09-07T00:19:05.340Z,95243.94
2022-09-07T00:21:32.226Z,95244.69
2022-09-07T00:23:59.244Z,95246.94
2022-09-07T00:26:28.951Z,95258.25
2022-09-07T00:29:00.808Z,95247.28
2022-09-07T00:31:29.364Z,95260.13
2022-09-07T00:33:59.217Z,95263.34
2022-09-07T00:36:27.067Z,95247.28
2022-09-07T00:38:54.186Z,95247.28
2022-09-07T00:41:22.930Z,95245.28
2022-09-07T00:43:58.600Z,95256.81
2022-09-07T00:46:30.655Z,95246.94
2022-09-07T00:49:09.378Z,95255.94
2022-09-07T00:51:40.779Z,95262.47
2022-09-07T00:54:26.812Z,95258.47
2022-09-07T00:56:54.030Z,95256.09
2022-09-07T00:59:28.869Z,95252.38
2022-09-07T01:01:55.925Z,95249.34
2022-09-07T01:04:24.398Z,95249.81
2022-09-07T01:06:55.150Z,95249.22
2022-09-07T01:09:25.545Z,95247.91
2022-09-07T01:11:54.746Z,95248.16
2022-09-07T01:14:27.946Z,95250.28
2022-09-07T01:17:16.776Z,95243.88
2022-09-07T01:20:22.132Z,95243.53
2022-09-07T01:23:34.331Z,95240.34
2022-09-07T01:26:34.147Z,95246.81
2022-09-07T01:29:18.161Z,95245.50
2022-09-07T01:31:50.768Z,95247.63
2022-09-07T01:34:33.573Z,95237.19
2022-09-07T01:37:03.213Z,95241.00
2022-09-07T01:39:51.158Z,95245.63
2022-09-07T01:42:25.233Z,95242.81
2022-09-07T01:45:02.088Z,95244.06
2022-09-07T01:47:33.899Z,95246.38
2022-09-07T01:50:18.323Z,95246.25
2022-09-07T01:52:56.547Z,95241.66
2022-09-07T01:55:38.861Z,95242.13
2022-09-07T01:58:14.757Z,95244.78
2022-09-07T02:00:51.361Z,95237.25
2022-09-07T02:03:35.206Z,95232.91
2022-09-07T02:06:19.988Z,95230.47
2022-09-07T02:09:02.623Z,95232.97
2022-09-07T02:11:49.673Z,95229.44
2022-09-07T02:14:24.936Z,95249.72
2022-09-07T02:17:14.529Z,95236.63
2022-09-07T02:19:50.922Z,95242.25
2022-09-07T02:22:26.681Z,95245.56
2022-09-07T02:24:59.710Z,95233.56
2022-09-07T02:27:45.517Z,95235.47
2022-09-07T02:30:12.776Z,95227.81
2022-09-07T02:32:39.475Z,95227.13
2022-09-07T02:35:06.794Z,95222.06
2022-09-07T02:37:35.663Z,95224.53
2022-09-07T02:40:02.912Z,95226.59
2022-09-07T02:42:33.866Z,95226.34
2022-09-07T02:45:05.897Z,95221.88
2022-09-07T02:48:11.426Z,95226.53
2022-09-07T02:50:56.273Z,95226.44
2022-09-07T02:53:59.215Z,95229.31
2022-09-07T02:56:25.796Z,95231.59
2022-09-07T02:59:12.490Z,95221.78
2022-09-07T03:02:06.634Z,95230.84
2022-09-07T03:05:00.952Z,95216.13
2022-09-07T03:07:43.963Z,95212.53
2022-09-07T03:10:14.514Z,95216.41
2022-09-07T03:12:49.676Z,95220.66
2022-09-07T03:15:20.689Z,95224.19
2022-09-07T03:17:47.708Z,95225.16
2022-09-07T03:20:15.617Z,95225.97
2022-09-07T03:22:42.808Z,95222.53
2022-09-07T03:25:10.977Z,95218.22
2022-09-07T03:27:37.757Z,95216.47
2022-09-07T03:30:06.458Z,95214.59
2022-09-07T03:32:35.602Z,95211.59
2022-09-07T03:35:05.786Z,95211.13
2022-09-07T03:37:32.530Z,95201.09
2022-09-07T03:39:59.200Z,95196.59
2022-09-07T03:42:25.947Z,95191.72
2022-09-07T03:44:52.576Z,95195.00
2022-09-07T03:47:19.214Z,95186.59
2022-09-07T03:49:45.918Z,95182.38
2022-09-07T03:52:12.553Z,95178.50
2022-09-07T03:54:39.852Z,95186.34
2022-09-07T03:57:06.842Z,95187.47
2022-09-07T03:59:33.727Z,95182.59
2022-09-07T04:02:00.962Z,95176.72
2022-09-07T04:04:28.339Z,95181.78
2022-09-07T04:06:55.142Z,95173.94
2022-09-07T04:09:21.828Z,95172.97
2022-09-07T04:11:48.864Z,95171.88
2022-09-07T04:14:16.753Z,95174.81
2022-09-07T04:16:43.881Z,95175.19
2022-09-07T04:19:10.542Z,95180.28
2022-09-07T04:21:37.274Z,95180.91
2022-09-07T04:24:03.965Z,95181.66
2022-09-07T04:26:33.431Z,95172.06
2022-09-07T04:29:00.952Z,95174.47
2022-09-07T04:31:27.676Z,95171.41
2022-09-07T04:33:55.930Z,95168.59
2022-09-07T04:36:23.491Z,95165.78
2022-09-07T04:38:58.018Z,95169.53
2022-09-07T04:41:24.802Z,95168.56
2022-09-07T04:43:57.356Z,95166.75
2022-09-07T04:46:33.372Z,95160.34
2022-09-07T04:49:02.705Z,95158.13
2022-09-07T04:51:31.774Z,95155.78
2022-09-07T04:54:01.010Z,95152.66
2022-09-07T04:56:28.317Z,95152.38
2022-09-07T04:58:55.394Z,95152.88
2022-09-07T05:01:24.391Z,95159.81
2022-09-07T05:03:52.140Z,95161.50
2022-09-07T05:06:21.744Z,95162.50
2022-09-07T05:08:51.632Z,95164.00
2022-09-07T05:11:23.807Z,95147.69
2022-09-07T05:13:53.023Z,95153.13
2022-09-07T05:16:23.006Z,95150.06
2022-09-07T05:18:55.595Z,95149.88
2022-09-07T05:21:25.457Z,95152.47
2022-09-07T05:23:55.816Z,95166.41
2022-09-07T05:26:25.263Z,95172.31
2022-09-07T05:28:51.995Z,95180.16
2022-09-07T05:31:23.617Z,95183.53
2022-09-07T05:36:39.848Z,95182.09
2022-09-07T05:39:07.746Z,95183.19
2022-09-07T05:41:34.859Z,95189.03
2022-09-07T05:46:48.430Z,95186.50
2022-09-07T05:49:15.106Z,95184.38
2022-09-07T05:51:41.798Z,95180.28
2022-09-07T05:54:08.457Z,95183.03
2022-09-07T05:56:35.992Z,95185.16
2022-09-07T05:59:03.392Z,95185.63
2022-09-07T06:01:30.882Z,95188.38
2022-09-07T06:03:57.748Z,95186.63
2022-09-07T06:06:24.476Z,95181.63
2022-09-07T06:08:53.483Z,95190.09
2022-09-07T06:11:22.950Z,95193.94
2022-09-07T06:13:50.999Z,95200.00
2022-09-07T06:16:19.080Z,95203.50
2022-09-07T06:18:48.409Z,95196.25
2022-09-07T06:21:18.202Z,95184.84
2022-09-07T06:23:46.538Z,95188.78
2022-09-07T06:26:14.557Z,95188.06
2022-09-07T06:28:45.270Z,95191.91
2022-09-07T06:31:17.938Z,95192.81
2022-09-07T06:33:45.555Z,95195.25
2022-09-07T06:36:18.246Z,95200.75
2022-09-07T06:38:45.420Z,95198.00
2022-09-07T06:44:04.186Z,95208.19
2022-09-07T06:49:17.611Z,95200.59
2022-09-07T06:51:45.921Z,95196.19
2022-09-07T06:56:59.264Z,95184.53
2022-09-07T06:59:25.950Z,95189.09
2022-09-07T07:01:52.598Z,95184.38
2022-09-07T07:04:19.286Z,95189.22
2022-09-07T07:06:45.891Z,95187.84
2022-09-07T07:09:12.605Z,95181.88
2022-09-07T07:11:39.522Z,95187.69
2022-09-07T07:14:06.142Z,95191.91
2022-09-07T07:16:32.930Z,95194.50
2022-09-07T07:18:59.688Z,95189.91
2022-09-07T07:21:28.968Z,95182.03
2022-09-07T07:24:04.998Z,95188.72
2022-09-07T07:26:34.210Z,95188.03
2022-09-07T07:29:02.304Z,95190.09
2022-09-07T07:31:30.291Z,95184.44
2022-09-07T07:33:57.023Z,95186.63
2022-09-07T07:36:26.300Z,95188.13
2022-09-07T07:44:16.300Z,95173.56
2022-09-07T07:46:42.978Z,95174.91
2022-09-07T07:49:09.694Z,95180.41
2022-09-07T07:54:23.218Z,95171.00
2022-09-07T07:56:49.873Z,95168.81
2022-09-07T07:59:16.497Z,95165.72
2022-09-07T08:01:43.330Z,95151.03
2022-09-07T08:04:10.128Z,95145.75
2022-09-07T08:06:36.981Z,95144.94
2022-09-07T08:09:03.682Z,95138.66
2022-09-07T08:11:30.305Z,95139.13
2022-09-07T08:13:56.911Z,95140.66
2022-09-07T08:16:23.552Z,95134.19
2022-09-07T08:18:50.194Z,95134.06
2022-09-07T08:21:17.057Z,95134.28
2022-09-07T08:23:44.443Z,95133.81
2022-09-07T08:26:11.385Z,95127.50
2022-09-07T08:28:40.888Z,95126.78
2022-09-07T08:31:11.150Z,95135.63
2022-09-07T08:33:38.922Z,95139.97
2022-09-07T08:36:08.312Z,95140.81
2022-09-07T08:38:37.152Z,95140.59
2022-09-07T08:41:23.976Z,95141.66
2022-09-07T08:44:01.795Z,95134.06
2022-09-07T08:46:51.654Z,95131.97
2022-09-07T08:49:55.254Z,95136.31
2022-09-07T08:52:29.073Z,95137.44
2022-09-07T08:55:14.975Z,95141.06
2022-09-07T08:57:52.297Z,95133.16
2022-09-07T09:00:20.723Z,95134.19
2022-09-07T09:03:28.747Z,95131.78
2022-09-07T09:05:52.311Z,95131.22
2022-09-07T09:09:00.323Z,95130.00
2022-09-07T09:11:43.401Z,95126.16
2022-09-07T09:17:26.736Z,95131.09
2022-09-07T09:20:32.201Z,95120.63
2022-09-07T09:23:04.961Z,95118.25
2022-09-07T09:25:35.077Z,95103.75
2022-09-07T09:28:01.844Z,95104.06
2022-09-07T09:30:28.578Z,95106.44
2022-09-07T09:33:18.489Z,95112.41
2022-09-07T09:35:48.226Z,95105.31
2022-09-07T09:38:33.289Z,95116.25
2022-09-07T09:41:12.289Z,95111.34
2022-09-07T09:43:46.876Z,95104.72
2022-09-07T09:46:28.470Z,95098.81
2022-09-07T09:49:23.788Z,95092.75
2022-09-07T09:54:50.796Z,95091.34
2022-09-07T09:59:04.825Z,95090.00
2022-09-07T10:00:35.397Z,95082.56
2022-09-07T10:06:06.369Z,95074.22
2022-09-07T10:08:33.592Z,95070.47
2022-09-07T10:11:06.551Z,95075.91
2022-09-07T10:13:36.867Z,95069.53
2022-09-07T10:16:07.204Z,95067.78
2022-09-07T10:18:54.349Z,95061.84
2022-09-07T10:21:26.690Z,95061.47
2022-09-07T10:24:14.937Z,95055.72
2022-09-07T10:26:42.912Z,95057.88
2022-09-07T10:29:30.728Z,95065.72
2022-09-07T10:32:06.903Z,95065.06
2022-09-07T10:34:42.625Z,95057.22
2022-09-07T10:37:40.034Z,95054.72
2022-09-07T10:40:21.047Z,95049.59
2022-09-07T10:43:21.105Z,95055.31
2022-09-07T10:49:23.925Z,95043.75
2022-09-07T10:52:10.880Z,95045.50
2022-09-07T10:55:01.484Z,95049.16
2022-09-07T10:57:32.406Z,95035.03
2022-09-07T11:00:10.126Z,95038.63
2022-09-07T11:06:10.709Z,95029.53
2022-09-07T11:09:16.576Z,95030.78
2022-09-07T11:12:14.921Z,95024.13
2022-09-07T11:14:50.205Z,95019.47
2022-09-07T11:17:27.533Z,95021.81
2022-09-07T11:20:13.936Z,95013.50
2022-09-07T11:23:18.060Z,95010.50
2022-09-07T11:26:06.881Z,94998.16
2022-09-07T11:31:49.015Z,94993.75
2022-09-07T11:34:26.010Z,94994.16
2022-09-07T11:37:06.442Z,94996.50
2022-09-07T11:39:48.029Z,94984.63
2022-09-07T11:45:37.154Z,94979.75
2022-09-07T11:48:38.554Z,94975.63
2022-09-07T11:51:22.450Z,94968.16
2022-09-07T11:54:17.971Z,94960.34
2022-09-07T11:56:53.633Z,94955.19
2022-09-07T11:59:28.157Z,94950.56
2022-09-07T12:01:54.872Z,94947.41
2022-09-07T12:04:43.555Z,94948.88
2022-09-07T12:07:19.141Z,94947.59
2022-09-07T12:10:04.694Z,94945.34
2022-09-07T12:12:52.902Z,94946.47
2022-09-07T12:15:27.634Z,94934.47
2022-09-07T12:18:26.574Z,94933.38
2022-09-07T12:20:53.731Z,94934.22
2022-09-07T12:23:28.439Z,94926.44
2022-09-07T12:26:38.161Z,94922.16
2022-09-07T12:29:20.157Z,94907.50
2022-09-07T12:34:35.937Z,94906.59
2022-09-07T12:37:36.865Z,94900.53
2022-09-07T12:40:29.455Z,94897.34
2022-09-07T12:43:17.144Z,94898.63
2022-09-07T12:45:43.649Z,94902.78
2022-09-07T12:48:16.269Z,94907.25
2022-09-07T12:51:04.483Z,94901.88
2022-09-07T12:53:50.597Z,94909.59
2022-09-07T12:56:43.080Z,94904.13
2022-09-07T12:59:43.417Z,94900.34
2022-09-07T13:02:10.037Z,94894.97
2022-09-07T13:05:01.285Z,94877.59
2022-09-07T13:08:29.434Z,94883.66
2022-09-07T13:10:56.514Z,94891.94
2022-09-07T13:16:14.549Z,94869.16
2022-09-07T13:18:43.706Z,94865.22
2022-09-07T13:21:10.317Z,94858.44
2022-09-07T13:23:42.295Z,94868.59
2022-09-07T13:26:13.067Z,94863.78
2022-09-07T13:28:56.220Z,94867.84
2022-09-07T13:32:03.649Z,94855.09
2022-09-07T13:34:33.265Z,94854.38
2022-09-07T13:37:16.367Z,94860.63
2022-09-07T13:39:46.896Z,94863.19
2022-09-07T13:42:24.397Z,94866.75
2022-09-07T13:44:58.886Z,94865.91
2022-09-07T13:47:59.437Z,94872.44
2022-09-07T13:50:52.653Z,94868.81
2022-09-07T13:53:45.321Z,94855.38
2022-09-07T13:56:30.511Z,94856.53
2022-09-07T13:58:57.413Z,94865.88
2022-09-07T14:01:28.924Z,94863.88
2022-09-07T14:04:02.260Z,94865.22
2022-09-07T14:06:32.844Z,94856.25
2022-09-07T14:09:14.600Z,94851.75
2022-09-07T14:11:53.898Z,94840.59
2022-09-07T14:14:31.165Z,94836.69
2022-09-07T14:17:00.540Z,94829.41
2022-09-07T14:19:49.752Z,94820.81
2022-09-07T14:22:21.857Z,94817.84
2022-09-07T14:24:57.647Z,94824.91
2022-09-07T14:27:35.895Z,94814.38
2022-09-07T14:30:21.300Z,94823.34
2022-09-07T14:32:53.423Z,94815.38
2022-09-07T14:35:23.535Z,94823.31
2022-09-07T14:37:51.190Z,94821.59
2022-09-07T14:40:22.018Z,94805.63
2022-09-07T14:42:50.736Z,94801.75
2022-09-07T14:45:20.092Z,94805.50
2022-09-07T14:47:50.478Z,94809.72
2022-09-07T14:50:30.873Z,94787.19
2022-09-07T14:53:41.204Z,94768.72
2022-09-07T14:56:10.457Z,94772.94
2022-09-07T14:58:37.261Z,94781.13
2022-09-07T15:04:01.392Z,94774.03
2022-09-07T15:09:30.467Z,94789.78
2022-09-07T15:12:06.220Z,94785.31
2022-09-07T15:14:32.959Z,94795.13
2022-09-07T15:19:48.882Z,94812.44
2022-09-07T15:22:18.556Z,94814.56
2022-09-07T15:24:51.328Z,94807.25
2022-09-07T15:27:29.231Z,94793.09
2022-09-07T15:29:58.231Z,94803.31
2022-09-07T15:32:24.842Z,94807.66
2022-09-07T15:34:51.532Z,94822.25
2022-09-07T15:41:10.464Z,94814.94
2022-09-07T15:43:33.853Z,94807.59
2022-09-07T15:46:04.629Z,94804.50
2022-09-07T15:48:31.528Z,94804.13
2022-09-07T15:52:04.684Z,94806.25
2022-09-07T15:54:11.651Z,94823.09
2022-09-07T15:56:38.853Z,94824.22
2022-09-07T15:59:06.309Z,94825.09
2022-09-07T16:04:19.862Z,94831.88
2022-09-07T16:06:48.293Z,94828.50
2022-09-07T16:09:15.209Z,94820.09
2022-09-07T16:11:42.999Z,94815.16
2022-09-07T16:14:09.748Z,94802.59
2022-09-07T16:19:23.232Z,94797.00
2022-09-07T16:21:49.875Z,94795.81
2022-09-07T16:24:16.547Z,94810.72
2022-09-07T16:26:43.190Z,94801.78
2022-09-07T16:29:09.791Z,94805.16
2022-09-07T16:31:37.100Z,94799.38
2022-09-07T16:34:04.303Z,94792.69
2022-09-07T16:36:31.038Z,94785.91
2022-09-07T16:39:00.338Z,94792.34
2022-09-07T16:41:30.342Z,94795.97
2022-09-07T16:43:58.350Z,94791.91
2022-09-07T16:46:28.771Z,94790.41
2022-09-07T16:48:55.445Z,94797.44
2022-09-07T16:51:23.858Z,94789.88
2022-09-07T16:53:53.555Z,94788.63
2022-09-07T16:56:26.837Z,94790.03
2022-09-07T16:59:05.074Z,94788.91
2022-09-07T17:01:34.924Z,94784.66
2022-09-07T17:04:05.431Z,94790.66
2022-09-07T17:06:34.827Z,94787.50
2022-09-07T17:09:01.484Z,94781.06
2022-09-07T17:11:34.225Z,94771.44
2022-09-07T17:14:01.677Z,94763.63
2022-09-07T17:16:31.211Z,94759.44
2022-09-07T17:21:46.336Z,94738.94
2022-09-07T17:24:13.171Z,94735.75
2022-09-07T17:26:42.124Z,94733.44
2022-09-07T17:29:12.767Z,94721.53
2022-09-07T17:34:26.232Z,94717.16
2022-09-07T17:36:52.837Z,94720.75
2022-09-07T17:39:20.003Z,94711.50
2022-09-07T17:41:48.723Z,94709.31
2022-09-07T17:44:15.877Z,94699.84
2022-09-07T17:46:42.695Z,94700.75
2022-09-07T17:49:10.538Z,94707.84
2022-09-07T17:51:37.189Z,94706.13
2022-09-07T17:54:10.177Z,94700.16
2022-09-07T17:56:37.763Z,94705.88
2022-09-07T18:01:51.448Z,94696.50
2022-09-07T18:04:18.161Z,94699.50
2022-09-07T18:06:44.956Z,94693.00
2022-09-07T18:09:12.546Z,94678.88
2022-09-07T18:11:48.174Z,94686.63
2022-09-07T18:14:15.661Z,94684.41
2022-09-07T18:16:45.119Z,94685.91
2022-09-07T18:19:12.942Z,94682.88
2022-09-07T18:21:41.501Z,94682.38
2022-09-07T18:24:14.256Z,94682.66
2022-09-07T18:26:41.096Z,94678.38
2022-09-07T18:29:25.795Z,94677.41
2022-09-07T18:31:54.611Z,94682.69
2022-09-07T18:34:21.852Z,94668.88
2022-09-07T18:36:48.477Z,94668.72
2022-09-07T18:39:15.097Z,94658.47
2022-09-07T18:41:41.773Z,94660.13
2022-09-07T18:45:26.995Z,94652.53
2022-09-07T18:46:55.286Z,94631.59
2022-09-07T18:49:21.963Z,94609.53
2022-09-07T18:54:35.440Z,94607.47
2022-09-07T18:57:02.062Z,94628.97
2022-09-07T18:59:30.771Z,94666.09
2022-09-07T19:02:01.562Z,94684.06
2022-09-07T19:05:49.536Z,94808.16
2022-09-07T19:07:17.763Z,94791.75
2022-09-07T19:09:44.467Z,94808.63
2022-09-07T19:12:11.105Z,94827.81
2022-09-07T19:14:37.892Z,94805.03
2022-09-07T19:17:04.549Z,94798.56
2022-09-07T19:19:31.139Z,94798.47
2022-09-07T19:21:57.741Z,94765.81
2022-09-07T19:24:24.521Z,94795.47
2022-09-07T19:26:58.065Z,94813.09
2022-09-07T19:29:27.542Z,94798.16
2022-09-07T19:31:54.223Z,94776.03
2022-09-07T19:34:20.884Z,94787.53
2022-09-07T19:36:47.547Z,94786.38
2022-09-07T19:39:14.385Z,94798.06
2022-09-07T19:41:41.034Z,94790.53
2022-09-07T19:44:08.354Z,94793.16
2022-09-07T19:46:34.980Z,94788.81
2022-09-07T19:49:02.127Z,94788.28
2022-09-07T19:51:30.104Z,94789.06
2022-09-07T19:53:59.225Z,94797.03
2022-09-07T19:56:25.867Z,94795.56
2022-09-07T19:58:52.678Z,94791.91
2022-09-07T20:01:22.854Z,94786.91
2022-09-07T20:03:57.692Z,94776.91
2022-09-07T20:06:27.715Z,94765.16
2022-09-07T20:08:56.497Z,94779.34
2022-09-07T20:11:25.437Z,94769.91
2022-09-07T20:13:52.270Z,94773.03
2022-09-07T20:16:19.694Z,94763.03
2022-09-07T20:18:49.538Z,94749.84
2022-09-07T20:21:19.428Z,94742.44
2022-09-07T20:23:46.711Z,94750.81
2022-09-07T20:26:16.462Z,94747.63
2022-09-07T20:28:44.162Z,94755.38
2022-09-07T20:31:14.815Z,94752.91
2022-09-07T20:33:43.880Z,94756.50
2022-09-07T20:36:16.305Z,94747.53
2022-09-07T20:38:45.881Z,94741.34
2022-09-07T20:41:42.017Z,94747.41
2022-09-07T20:44:11.848Z,94743.09
2022-09-07T20:46:39.135Z,94742.38
2022-09-07T20:49:08.755Z,94734.59
2022-09-07T20:51:35.650Z,94726.63
2022-09-07T20:54:02.512Z,94729.34
2022-09-07T20:56:32.372Z,94718.66
2022-09-07T20:59:02.358Z,94724.09
2022-09-07T21:01:31.534Z,94715.84
2022-09-07T21:04:00.669Z,94713.53
2022-09-07T21:06:29.431Z,94715.03
2022-09-07T21:08:56.634Z,94719.69
2022-09-07T21:11:26.490Z,94710.72
2022-09-07T21:14:10.762Z,94704.97
2022-09-07T21:16:38.531Z,94699.69
2022-09-07T21:19:07.653Z,94693.88
2022-09-07T21:21:38.979Z,94696.38
2022-09-07T21:24:14.659Z,94689.84
2022-09-07T21:26:41.430Z,94675.13
2022-09-07T21:29:13.391Z,94653.78
2022-09-07T21:31:40.132Z,94648.91
2022-09-07T21:34:06.804Z,94652.16
2022-09-07T21:36:33.640Z,94659.84
2022-09-07T21:39:00.338Z,94684.56
2022-09-07T21:41:27.406Z,94691.41
2022-09-07T21:44:00.113Z,94637.41
2022-09-07T21:46:30.016Z,94602.38
2022-09-07T21:48:57.977Z,94647.13
2022-09-07T21:51:26.723Z,94735.63
2022-09-07T21:53:58.642Z,94774.59
2022-09-07T21:56:46.677Z,94840.06
2022-09-07T21:59:13.665Z,94867.97
2022-09-07T22:01:40.393Z,94877.00
2022-09-07T22:04:07.164Z,94899.94
2022-09-07T22:06:35.086Z,94922.31
2022-09-07T22:09:03.780Z,94886.03
2022-09-07T22:11:31.257Z,94875.09
2022-09-07T22:14:01.127Z,94851.31
2022-09-07T22:16:28.780Z,94871.28
2022-09-07T22:18:55.669Z,94875.59
2022-09-07T22:21:28.382Z,94860.59
2022-09-07T22:23:57.891Z,94866.41
2022-09-07T22:26:27.829Z,94857.34
2022-09-07T22:28:58.006Z,94852.63
2022-09-07T22:31:36.995Z,94849.66
2022-09-07T22:34:10.061Z,94838.97
2022-09-07T22:36:40.231Z,94829.16
2022-09-07T22:39:11.450Z,94826.44
2022-09-07T22:41:39.363Z,94838.22
2022-09-07T22:44:09.852Z,94841.94
2022-09-07T22:46:39.290Z,94866.53
2022-09-07T22:49:07.367Z,94885.03
2022-09-07T22:51:34.346Z,94899.66
2022-09-07T22:54:00.985Z,94916.88
2022-09-07T22:56:30.355Z,94927.81
2022-09-07T22:59:00.456Z,94970.38
2022-09-07T23:01:29.948Z,94977.84
2022-09-07T23:03:57.858Z,94996.66
2022-09-07T23:06:30.593Z,94985.97
2022-09-07T23:09:00.019Z,94990.22
2022-09-07T23:11:27.259Z,94988.59
2022-09-07T23:13:58.803Z,94956.59
2022-09-07T23:16:26.738Z,94969.13
2022-09-07T23:18:54.522Z,94962.41
2022-09-07T23:21:21.699Z,94938.66
2022-09-07T23:23:57.243Z,94949.06
2022-09-07T23:26:26.347Z,94967.53
2022-09-07T23:28:55.529Z,94971.28
2022-09-07T23:31:23.311Z,94966.47
2022-09-07T23:33:50.532Z,94963.25
2022-09-07T23:36:17.802Z,94967.53
2022-09-07T23:38:45.968Z,94993.97
2022-09-07T23:41:12.973Z,94991.28
2022-09-07T23:43:40.133Z,94982.19
2022-09-07T23:46:07.074Z,94984.59
2022-09-07T23:48:33.741Z,94986.22
2022-09-07T23:51:00.387Z,94976.56
2022-09-07T23:53:27.111Z,94972.84
2022-09-07T23:55:53.880Z,94966.97
2022-09-07T23:58:22.757Z,94966.63
